Time;durP1;ratioP1;P1;durP2;ratioP2;P2;SDS_P1;SDS_P2;PMS_P1;PMS_P2;Temp;Humidity;BMP_temperature;BMP_pressure;BME280_temperature;BME280_humidity;BME280_pressure;Samples;Min_cycle;Max_cycle;Signal;HPM_P1;HPM_P2
2023/10/05 00:01:56;;;;;;;6.40;5.30;;;14.10;99.90;;;;;;5024211;28;20983;-54
2023/10/05 00:04:24;;;;;;;7.60;4.93;;;14.00;99.90;;;;;;5028971;28;20194;-54
2023/10/05 00:06:53;;;;;;;7.60;4.17;;;14.10;99.90;;;;;;5027170;28;20602;-55
2023/10/05 00:09:20;;;;;;;7.97;4.90;;;14.00;99.90;;;;;;5031829;28;20203;-56
2023/10/05 00:11:45;;;;;;;8.70;4.43;;;13.90;99.90;;;;;;5024868;28;20203;-57
2023/10/05 00:14:12;;;;;;;8.00;4.77;;;13.90;99.90;;;;;;5028164;28;20609;-59
2023/10/05 00:16:39;;;;;;;10.40;5.47;;;13.90;99.90;;;;;;5030731;28;20203;-60
2023/10/05 00:19:10;;;;;;;9.63;4.57;;;13.80;99.90;;;;;;5031044;28;20692;-62
2023/10/05 00:21:48;;;;;;;7.20;4.70;;;13.70;99.90;;;;;;5026501;28;20701;-59
2023/10/05 00:24:15;;;;;;;7.77;4.67;;;13.70;99.90;;;;;;5027470;28;20191;-59
2023/10/05 00:26:43;;;;;;;10.40;4.57;;;13.60;99.90;;;;;;5024538;28;20199;-57
2023/10/05 00:29:18;;;;;;;12.57;5.80;;;13.70;99.90;;;;;;5030557;28;20205;-58
2023/10/05 00:31:45;;;;;;;8.10;4.27;;;13.80;99.90;;;;;;5027795;28;20881;-58
2023/10/05 00:34:22;;;;;;;8.60;4.90;;;13.80;99.90;;;;;;5028128;28;20280;-55
2023/10/05 00:36:53;;;;;;;6.80;4.27;;;13.80;99.90;;;;;;5026281;28;20279;-55
2023/10/05 00:39:20;;;;;;;9.90;3.97;;;13.90;99.90;;;;;;5027634;28;20199;-54
2023/10/05 00:41:49;;;;;;;6.30;4.10;;;13.80;99.90;;;;;;5027164;28;20223;-54
2023/10/05 00:44:15;;;;;;;6.13;4.83;;;13.80;99.90;;;;;;5022614;28;20211;-55
2023/10/05 00:46:48;;;;;;;8.97;4.97;;;13.70;99.90;;;;;;5028109;28;20206;-55
2023/10/05 00:49:20;;;;;;;9.93;4.10;;;13.80;99.90;;;;;;5025098;28;20195;-60
2023/10/05 00:52:04;;;;;;;7.07;3.87;;;13.70;99.90;;;;;;5030003;28;20229;-60
2023/10/05 00:54:31;;;;;;;6.97;4.30;;;13.80;99.90;;;;;;5022695;28;20190;-55
2023/10/05 00:57:05;;;;;;;9.77;4.80;;;13.80;99.90;;;;;;5029092;28;20201;-55
2023/10/05 00:59:32;;;;;;;9.20;4.20;;;13.80;99.90;;;;;;5026707;28;20187;-54
2023/10/05 01:04:29;;;;;;;7.50;3.80;;;13.70;99.90;;;;;;5028694;28;20199;-53
2023/10/05 01:06:56;;;;;;;5.80;4.07;;;13.70;99.90;;;;;;5031985;28;20253;-54
2023/10/05 01:12:17;;;;;;;7.13;4.20;;;13.80;99.90;;;;;;5030536;28;20230;-54
2023/10/05 01:14:50;;;;;;;4.53;3.87;;;13.80;99.90;;;;;;5026469;28;20199;-54
2023/10/05 01:17:20;;;;;;;8.97;4.13;;;13.80;99.90;;;;;;5026907;28;20210;-54
2023/10/05 01:19:59;;;;;;;8.23;4.33;;;13.80;99.90;;;;;;5028752;28;20199;-54
2023/10/05 01:22:33;;;;;;;6.80;3.73;;;13.80;99.90;;;;;;5024929;28;20221;-54
2023/10/05 01:24:59;;;;;;;6.03;3.67;;;13.70;99.90;;;;;;5031271;28;20571;-54
2023/10/05 01:27:29;;;;;;;7.10;3.80;;;13.70;99.90;;;;;;5032052;28;20263;-54
2023/10/05 01:29:55;;;;;;;8.13;4.23;;;13.70;99.90;;;;;;5029072;28;20649;-54
2023/10/05 01:32:21;;;;;;;5.40;3.97;;;13.70;99.90;;;;;;5031885;28;20241;-54
2023/10/05 01:34:49;;;;;;;9.60;4.10;;;13.70;99.90;;;;;;5031319;28;20206;-54
2023/10/05 01:37:18;;;;;;;6.57;4.40;;;13.70;99.90;;;;;;5027216;28;20272;-53
2023/10/05 01:39:44;;;;;;;8.77;4.73;;;13.70;99.90;;;;;;5025885;28;20606;-54
2023/10/05 01:42:11;;;;;;;9.73;5.10;;;13.80;99.90;;;;;;5024380;28;20211;-54
2023/10/05 01:44:39;;;;;;;7.83;4.03;;;13.90;99.90;;;;;;5020272;28;20203;-54
2023/10/05 01:47:05;;;;;;;7.37;4.17;;;13.80;99.90;;;;;;5027553;28;20696;-54
2023/10/05 01:49:31;;;;;;;12.50;4.43;;;13.90;99.90;;;;;;5027840;28;20186;-54
2023/10/05 01:51:57;;;;;;;8.77;3.97;;;13.90;99.90;;;;;;5024105;28;20211;-54
2023/10/05 01:54:26;;;;;;;8.20;3.90;;;13.80;99.90;;;;;;5025356;28;20203;-54
2023/10/05 01:56:54;;;;;;;7.37;3.93;;;13.90;99.90;;;;;;5023598;28;20203;-54
2023/10/05 01:59:21;;;;;;;7.60;3.77;;;13.90;99.90;;;;;;5029122;28;20188;-53
2023/10/05 02:01:47;;;;;;;6.47;4.17;;;13.80;99.90;;;;;;5029461;28;20230;-54
2023/10/05 02:04:15;;;;;;;7.97;4.27;;;13.70;99.90;;;;;;5027241;28;20643;-56
2023/10/05 02:06:42;;;;;;;9.03;4.43;;;13.70;99.90;;;;;;5030269;28;20213;-54
2023/10/05 02:09:14;;;;;;;8.20;3.40;;;13.80;99.90;;;;;;5034643;28;20265;-54
2023/10/05 02:11:41;;;;;;;6.07;4.03;;;13.80;99.90;;;;;;5027092;28;20779;-55
2023/10/05 02:14:06;;;;;;;4.40;3.23;;;13.70;99.90;;;;;;5030551;28;20696;-56
2023/10/05 02:16:32;;;;;;;11.67;4.80;;;13.60;99.90;;;;;;5026972;28;20321;-57
2023/10/05 02:19:02;;;;;;;8.00;3.73;;;13.60;99.90;;;;;;5031388;28;20195;-56
2023/10/05 02:21:32;;;;;;;6.03;3.10;;;13.70;99.90;;;;;;5043798;22;20230;-56
2023/10/05 02:24:10;;;;;;;6.07;3.30;;;13.80;99.90;;;;;;5020246;28;20689;-56
2023/10/05 02:26:36;;;;;;;9.43;4.07;;;13.60;99.90;;;;;;5019120;28;20195;-55
2023/10/05 02:29:14;;;;;;;5.70;3.47;;;13.50;99.90;;;;;;5014721;28;20293;-56
2023/10/05 02:34:59;;;;;;;7.67;3.80;;;13.60;99.90;;;;;;5013358;28;20202;-56
2023/10/05 02:37:28;;;;;;;7.73;3.67;;;13.70;99.90;;;;;;5019196;28;20226;-60
2023/10/05 02:39:53;;;;;;;5.73;3.93;;;13.70;99.90;;;;;;5015448;28;20191;-58
2023/10/05 02:42:21;;;;;;;5.57;3.33;;;13.60;99.90;;;;;;5015127;28;20708;-57
2023/10/05 02:44:46;;;;;;;7.53;3.97;;;13.60;99.90;;;;;;5012736;28;20204;-54
2023/10/05 02:47:13;;;;;;;9.10;4.03;;;13.50;99.90;;;;;;5021018;28;20559;-55
2023/10/05 02:49:43;;;;;;;9.67;3.90;;;13.40;99.90;;;;;;5001214;28;20207;-55
2023/10/05 02:52:13;;;;;;;11.27;3.87;;;13.50;99.90;;;;;;5021912;28;20284;-53
2023/10/05 02:54:45;;;;;;;8.43;3.83;;;13.50;99.90;;;;;;5017338;28;20195;-54
2023/10/05 02:57:14;;;;;;;5.33;4.10;;;13.60;99.90;;;;;;5018944;28;20206;-53
2023/10/05 02:59:39;;;;;;;7.60;4.03;;;13.60;99.90;;;;;;5014943;28;20284;-54
2023/10/05 03:02:09;;;;;;;7.63;3.67;;;13.50;99.90;;;;;;5018687;28;20223;-54
2023/10/05 03:04:44;;;;;;;7.13;3.47;;;13.50;99.90;;;;;;5024281;28;20195;-54
2023/10/05 03:07:17;;;;;;;6.27;3.53;;;13.50;99.90;;;;;;5015782;28;20222;-54
2023/10/05 03:09:47;;;;;;;10.60;3.60;;;13.50;99.90;;;;;;5018508;28;20207;-54
2023/10/05 03:12:13;;;;;;;6.37;3.80;;;13.40;99.90;;;;;;5017473;28;20203;-54
2023/10/05 03:14:45;;;;;;;5.87;3.40;;;13.50;99.90;;;;;;5017302;28;20196;-54
2023/10/05 03:17:19;;;;;;;8.10;4.20;;;13.50;99.90;;;;;;5018613;28;20571;-54
2023/10/05 03:19:45;;;;;;;9.50;3.60;;;13.60;99.90;;;;;;5014794;28;20759;-54
2023/10/05 03:22:13;;;;;;;7.17;3.73;;;13.70;99.90;;;;;;5014860;28;20220;-54
2023/10/05 03:24:48;;;;;;;7.30;3.73;;;13.60;99.90;;;;;;5014826;28;20200;-54
2023/10/05 03:27:16;;;;;;;6.97;3.80;;;13.50;99.90;;;;;;5022898;28;20201;-55
2023/10/05 03:29:45;;;;;;;7.17;3.67;;;13.60;99.90;;;;;;5019154;28;20202;-54
2023/10/05 03:34:37;;;;;;;5.90;3.13;;;13.60;99.90;;;;;;5022670;28;20267;-54
2023/10/05 03:37:12;;;;;;;5.13;3.40;;;13.60;99.90;;;;;;5018791;28;20364;-53
2023/10/05 03:42:22;;;;;;;7.47;3.80;;;13.60;99.90;;;;;;5017833;28;20230;-55
2023/10/05 03:45:00;;;;;;;5.20;3.43;;;13.60;99.90;;;;;;5011791;28;20203;-55
2023/10/05 03:47:26;;;;;;;6.53;3.43;;;13.60;99.90;;;;;;5016888;28;20850;-54
2023/10/05 03:49:54;;;;;;;6.90;3.80;;;13.60;99.90;;;;;;5015171;28;20206;-55
2023/10/05 03:52:20;;;;;;;6.63;3.67;;;13.60;99.90;;;;;;5014148;28;20258;-54
2023/10/05 03:54:45;;;;;;;12.03;4.43;;;13.60;99.90;;;;;;5015179;28;20693;-54
2023/10/05 03:57:11;;;;;;;9.97;3.83;;;13.70;99.90;;;;;;5020463;28;20238;-55
2023/10/05 03:59:36;;;;;;;7.33;4.30;;;13.60;99.90;;;;;;4995960;28;20578;-55
2023/10/05 04:02:04;;;;;;;7.03;3.80;;;13.60;99.90;;;;;;5015402;28;20230;-55
2023/10/05 04:04:34;;;;;;;7.43;4.03;;;13.60;99.90;;;;;;5013892;28;20195;-57
2023/10/05 04:07:00;;;;;;;6.73;3.87;;;13.60;99.90;;;;;;5013601;28;20683;-54
2023/10/05 04:09:28;;;;;;;7.60;3.73;;;13.70;99.90;;;;;;5017968;28;21147;-54
2023/10/05 04:11:54;;;;;;;8.33;3.90;;;13.70;99.90;;;;;;5013358;28;20278;-54
2023/10/05 04:14:20;;;;;;;7.17;4.03;;;13.80;99.90;;;;;;4997073;28;20199;-54
2023/10/05 04:16:48;;;;;;;10.10;4.43;;;13.70;99.90;;;;;;5021381;28;20211;-55
2023/10/05 04:19:14;;;;;;;7.27;3.53;;;13.70;99.90;;;;;;5013661;28;20530;-55
2023/10/05 04:21:40;;;;;;;7.87;4.47;;;13.70;99.90;;;;;;5015303;28;20235;-55
2023/10/05 04:24:06;;;;;;;8.50;3.53;;;13.80;99.90;;;;;;4995458;28;21081;-55
2023/10/05 04:26:37;;;;;;;6.40;4.37;;;13.80;99.90;;;;;;5018338;28;20203;-55
2023/10/05 04:29:08;;;;;;;11.57;4.00;;;13.70;99.90;;;;;;5013861;28;20199;-54
2023/10/05 04:31:36;;;;;;;8.17;3.87;;;13.70;99.90;;;;;;5021197;28;20195;-54
2023/10/05 04:34:05;;;;;;;11.83;4.13;;;13.70;99.90;;;;;;5015353;28;20202;-55
2023/10/05 04:36:31;;;;;;;6.73;3.60;;;13.70;99.90;;;;;;5014266;28;20210;-55
2023/10/05 04:38:58;;;;;;;10.47;4.23;;;13.60;99.90;;;;;;5017029;28;20677;-54
2023/10/05 04:41:39;;;;;;;9.43;3.77;;;13.60;99.90;;;;;;5016741;28;20301;-54
2023/10/05 04:44:07;;;;;;;6.17;3.73;;;13.60;99.90;;;;;;5009861;28;20940;-54
2023/10/05 04:46:33;;;;;;;7.60;3.73;;;13.50;99.90;;;;;;5013256;28;20196;-62
2023/10/05 04:49:08;;;;;;;6.93;3.63;;;13.50;99.90;;;;;;5012871;28;20214;-58
2023/10/05 04:51:38;;;;;;;9.00;3.90;;;13.60;99.90;;;;;;5012750;28;20203;-61
2023/10/05 04:54:03;;;;;;;13.40;4.40;;;13.70;99.90;;;;;;5014226;28;20213;-54
2023/10/05 04:57:34;;;;;;;7.27;3.87;;;13.70;99.90;;;;;;5019243;28;20227;-56
2023/10/05 05:07:07;;;;;;;13.07;3.87;;;13.70;99.90;;;;;;5013528;28;20209;-54
2023/10/05 05:09:35;;;;;;;7.00;4.70;;;13.60;99.90;;;;;;5018350;28;20195;-55
2023/10/05 05:12:09;;;;;;;6.40;4.10;;;13.60;99.90;;;;;;5020435;28;20616;-55
2023/10/05 05:14:42;;;;;;;9.97;4.00;;;13.50;99.90;;;;;;5015076;28;20230;-55
2023/10/05 05:17:12;;;;;;;6.53;3.83;;;13.40;99.90;;;;;;5014163;28;20214;-54
2023/10/05 05:19:39;;;;;;;6.50;3.47;;;13.60;99.90;;;;;;5013363;28;20290;-55
2023/10/05 05:22:05;;;;;;;9.33;4.47;;;13.60;99.90;;;;;;5011981;28;20231;-57
2023/10/05 05:24:31;;;;;;;7.97;4.43;;;13.60;99.90;;;;;;5012240;28;20282;-57
2023/10/05 05:27:00;;;;;;;6.27;4.00;;;13.60;99.90;;;;;;5007789;28;20288;-57
2023/10/05 05:29:29;;;;;;;7.83;3.83;;;13.60;99.90;;;;;;5012224;28;20191;-56
2023/10/05 05:31:55;;;;;;;8.00;4.27;;;13.60;99.90;;;;;;5008041;28;20221;-60
2023/10/05 05:34:25;;;;;;;9.87;4.53;;;13.70;99.90;;;;;;4996789;28;20301;-59
2023/10/05 05:36:53;;;;;;;10.10;3.80;;;13.60;99.90;;;;;;5014677;28;20669;-58
2023/10/05 05:39:20;;;;;;;8.57;4.20;;;13.60;99.90;;;;;;5014223;28;20194;-59
2023/10/05 05:41:55;;;;;;;8.77;4.00;;;13.60;99.90;;;;;;4991301;28;20268;-58
2023/10/05 05:44:21;;;;;;;9.10;4.47;;;13.40;99.90;;;;;;5010151;28;20210;-59
2023/10/05 05:46:49;;;;;;;7.80;4.20;;;13.50;99.90;;;;;;5013852;28;20203;-58
2023/10/05 05:49:16;;;;;;;12.03;4.80;;;13.50;99.90;;;;;;5012245;28;20214;-58
2023/10/05 05:51:43;;;;;;;7.40;4.03;;;13.50;99.90;;;;;;5012217;28;20210;-58
2023/10/05 05:54:10;;;;;;;11.63;5.03;;;13.50;99.90;;;;;;5014258;28;20207;-60
2023/10/05 05:56:36;;;;;;;6.80;4.17;;;13.60;99.90;;;;;;5012237;28;20209;-60
2023/10/05 05:59:02;;;;;;;7.33;3.87;;;13.70;99.90;;;;;;4989357;28;20210;-55
2023/10/05 06:01:28;;;;;;;9.80;4.63;;;13.80;99.90;;;;;;5005210;28;20610;-55
2023/10/05 06:03:54;;;;;;;10.43;4.43;;;13.80;99.90;;;;;;5008148;28;20234;-57
2023/10/05 06:06:20;;;;;;;11.90;4.77;;;13.90;99.90;;;;;;5021135;28;20199;-57
2023/10/05 06:08:46;;;;;;;11.43;5.53;;;13.90;99.90;;;;;;4991523;28;20553;-61
2023/10/05 06:11:13;;;;;;;10.07;4.80;;;13.90;99.90;;;;;;5012087;28;20203;-64
2023/10/05 06:13:38;;;;;;;8.90;4.77;;;13.80;99.90;;;;;;5015569;28;20217;-64
2023/10/05 06:16:10;;;;;;;6.43;3.80;;;13.90;99.90;;;;;;5015629;28;20203;-59
2023/10/05 06:18:39;;;;;;;6.80;4.13;;;14.00;99.90;;;;;;5011741;28;20199;-62
2023/10/05 06:21:05;;;;;;;9.37;5.20;;;14.00;99.90;;;;;;5019881;28;20229;-58
2023/10/05 06:23:33;;;;;;;8.63;4.70;;;13.90;99.90;;;;;;5015657;28;20198;-58
2023/10/05 06:26:00;;;;;;;11.40;4.30;;;13.90;99.90;;;;;;4994021;28;20695;-58
2023/10/05 06:28:27;;;;;;;9.07;4.37;;;13.80;99.90;;;;;;4991895;28;20235;-58
2023/10/05 06:30:57;;;;;;;10.40;4.23;;;13.90;99.90;;;;;;5013521;28;20253;-57
2023/10/05 06:33:22;;;;;;;10.77;4.10;;;13.80;99.90;;;;;;5013499;28;20199;-58
2023/10/05 06:35:48;;;;;;;10.50;4.87;;;13.80;99.90;;;;;;4993837;28;20252;-59
2023/10/05 06:38:16;;;;;;;10.33;4.50;;;13.90;99.90;;;;;;5010983;28;20529;-57
2023/10/05 06:40:41;;;;;;;8.33;4.40;;;14.00;99.90;;;;;;5014442;28;20187;-57
2023/10/05 06:43:07;;;;;;;8.37;4.27;;;14.00;99.90;;;;;;5012250;28;20226;-58
2023/10/05 06:45:35;;;;;;;6.03;4.00;;;14.10;99.90;;;;;;5013790;28;20276;-58
2023/10/05 06:48:04;;;;;;;6.63;4.90;;;14.00;99.90;;;;;;5014716;28;20520;-58
2023/10/05 06:50:29;;;;;;;9.00;4.63;;;14.00;99.90;;;;;;5013786;28;20204;-58
2023/10/05 06:52:55;;;;;;;7.27;4.43;;;14.00;99.90;;;;;;4994785;28;20222;-58
2023/10/05 06:55:23;;;;;;;13.73;4.73;;;14.10;99.90;;;;;;5018757;28;20215;-58
2023/10/05 06:57:53;;;;;;;10.50;4.47;;;14.20;99.90;;;;;;5019507;28;20217;-58
2023/10/05 07:00:22;;;;;;;10.03;4.67;;;14.20;99.90;;;;;;5015407;28;20198;-58
2023/10/05 07:02:58;;;;;;;9.00;4.03;;;14.20;99.90;;;;;;5014926;28;20211;-57
2023/10/05 07:05:24;;;;;;;10.03;4.47;;;14.10;99.90;;;;;;5014400;28;20199;-57
2023/10/05 07:07:50;;;;;;;9.67;4.20;;;14.20;99.90;;;;;;5022070;28;20657;-57
2023/10/05 07:10:15;;;;;;;8.77;3.83;;;14.20;99.90;;;;;;5014497;28;20824;-58
2023/10/05 07:12:42;;;;;;;8.70;3.83;;;14.30;99.90;;;;;;4996706;28;20306;-57
2023/10/05 07:15:09;;;;;;;5.93;3.90;;;14.30;99.90;;;;;;5014623;28;20203;-57
2023/10/05 07:17:34;;;;;;;6.37;3.90;;;14.40;99.90;;;;;;5017011;28;20738;-58
2023/10/05 07:20:01;;;;;;;9.73;4.20;;;14.40;99.90;;;;;;5012966;28;20204;-56
2023/10/05 07:22:26;;;;;;;5.80;3.87;;;14.50;99.90;;;;;;5014698;28;20587;-57
2023/10/05 07:24:52;;;;;;;7.87;4.03;;;14.60;99.90;;;;;;5008391;28;20208;-59
2023/10/05 07:27:18;;;;;;;10.70;4.30;;;14.70;99.90;;;;;;5010370;28;20210;-58
2023/10/05 07:29:45;;;;;;;4.63;3.37;;;14.60;99.90;;;;;;5007653;28;20200;-55
2023/10/05 07:32:12;;;;;;;7.97;3.57;;;14.70;99.90;;;;;;5010874;28;20708;-58
2023/10/05 07:34:41;;;;;;;13.70;4.87;;;14.70;99.90;;;;;;5015182;28;20199;-57
2023/10/05 07:37:10;;;;;;;11.00;4.10;;;14.80;99.90;;;;;;5015267;28;20559;-57
2023/10/05 07:39:43;;;;;;;8.10;4.00;;;14.80;99.90;;;;;;4997683;28;20238;-64
2023/10/05 07:42:09;;;;;;;6.73;3.83;;;14.90;99.90;;;;;;5011685;28;20242;-58
2023/10/05 07:44:39;;;;;;;9.23;3.83;;;15.00;99.90;;;;;;5010519;28;20211;-57
2023/10/05 07:47:06;;;;;;;7.07;3.07;;;15.10;99.90;;;;;;5014012;28;20658;-57
2023/10/05 07:49:35;;;;;;;8.30;3.47;;;15.00;99.90;;;;;;5013815;28;20267;-56
2023/10/05 07:52:07;;;;;;;8.43;3.87;;;15.00;99.90;;;;;;5015499;28;20294;-57
2023/10/05 07:54:34;;;;;;;10.57;4.30;;;15.00;99.90;;;;;;5018134;28;20460;-58
2023/10/05 07:57:01;;;;;;;6.53;3.80;;;15.10;99.90;;;;;;5011654;28;20638;-56
2023/10/05 07:59:27;;;;;;;8.37;3.40;;;15.20;99.90;;;;;;5011959;28;20208;-55
2023/10/05 08:01:52;;;;;;;8.30;3.70;;;15.20;99.90;;;;;;5009869;28;21142;-59
2023/10/05 08:04:19;;;;;;;8.67;3.40;;;15.30;99.90;;;;;;4990011;28;20294;-58
2023/10/05 08:06:45;;;;;;;6.77;4.23;;;15.40;99.90;;;;;;5010549;28;20196;-54
2023/10/05 08:09:15;;;;;;;10.27;3.77;;;15.40;99.90;;;;;;5006928;28;20196;-54
2023/10/05 08:11:43;;;;;;;8.07;3.37;;;15.30;99.90;;;;;;5008877;28;20195;-56
2023/10/05 08:14:10;;;;;;;12.47;3.30;;;15.40;99.90;;;;;;5013190;28;20202;-54
2023/10/05 08:16:35;;;;;;;8.97;4.03;;;15.40;99.90;;;;;;5012794;28;20548;-58
2023/10/05 08:19:01;;;;;;;6.47;3.10;;;15.50;99.90;;;;;;5011984;28;20207;-57
2023/10/05 08:21:27;;;;;;;8.40;4.07;;;15.40;99.90;;;;;;4995080;28;20285;-56
2023/10/05 08:23:52;;;;;;;5.33;3.17;;;15.40;99.90;;;;;;5013282;28;20701;-57
2023/10/05 08:26:18;;;;;;;13.47;4.23;;;15.40;99.90;;;;;;4999291;28;20187;-56
2023/10/05 08:28:50;;;;;;;7.67;3.37;;;15.50;99.90;;;;;;5019404;28;20199;-57
2023/10/05 08:31:22;;;;;;;8.40;4.00;;;15.60;99.90;;;;;;5018816;28;20218;-56
2023/10/05 08:33:49;;;;;;;5.67;4.10;;;15.60;99.90;;;;;;4992292;28;20781;-56
2023/10/05 08:36:17;;;;;;;7.43;3.50;;;15.60;99.90;;;;;;5015256;28;20948;-57
2023/10/05 08:38:47;;;;;;;10.10;4.17;;;15.80;99.90;;;;;;5012721;28;20194;-57
2023/10/05 08:41:31;;;;;;;8.33;3.67;;;15.70;99.90;;;;;;4998785;28;20203;-56
2023/10/05 08:43:58;;;;;;;8.13;3.30;;;15.70;99.90;;;;;;4988726;28;20204;-57
2023/10/05 08:46:25;;;;;;;5.60;2.90;;;15.70;99.90;;;;;;4991263;28;20203;-58
2023/10/05 08:48:51;;;;;;;5.57;3.37;;;15.70;99.90;;;;;;5009974;28;20214;-56
2023/10/05 08:51:17;;;;;;;5.03;3.10;;;15.70;99.90;;;;;;5015272;28;20229;-54
2023/10/05 08:53:48;;;;;;;6.13;3.23;;;15.80;99.90;;;;;;4993790;28;20698;-55
2023/10/05 08:56:15;;;;;;;5.50;3.33;;;15.90;99.90;;;;;;4991581;28;20241;-54
2023/10/05 08:58:46;;;;;;;6.87;3.70;;;16.00;99.90;;;;;;5008410;28;20951;-56
2023/10/05 09:01:31;;;;;;;8.17;3.83;;;16.10;99.90;;;;;;5009746;28;20199;-59
2023/10/05 09:06:55;;;;;;;8.30;4.07;;;16.40;99.90;;;;;;5009174;28;20191;-56
2023/10/05 09:09:39;;;;;;;13.10;4.17;;;16.40;99.90;;;;;;5007831;28;20677;-55
2023/10/05 09:12:34;;;;;;;8.33;3.47;;;16.50;99.90;;;;;;5013407;28;20280;-57
2023/10/05 09:15:14;;;;;;;5.43;3.03;;;16.30;99.90;;;;;;4993244;28;20208;-54
2023/10/05 09:20:33;;;;;;;6.70;3.63;;;16.40;99.90;;;;;;5014593;28;20221;-54
2023/10/05 09:23:01;;;;;;;5.73;3.87;;;16.60;99.90;;;;;;5017395;28;20683;-55
2023/10/05 09:25:38;;;;;;;8.83;3.97;;;16.60;99.90;;;;;;4989059;28;20224;-57
2023/10/05 09:28:14;;;;;;;5.67;3.10;;;16.60;99.90;;;;;;4999495;28;20261;-57
2023/10/05 09:30:57;;;;;;;6.40;3.10;;;16.40;99.90;;;;;;5017611;28;20317;-56
2023/10/05 09:33:34;;;;;;;8.93;3.60;;;16.50;99.90;;;;;;5018300;28;20242;-56
2023/10/05 09:36:22;;;;;;;10.00;5.53;;;16.50;99.90;;;;;;5014982;28;20203;-57
2023/10/05 09:38:48;;;;;;;11.00;4.10;;;16.50;99.90;;;;;;5005940;28;20200;-62
2023/10/05 09:41:19;;;;;;;5.90;3.20;;;16.50;99.90;;;;;;5012712;28;20195;-56
2023/10/05 09:43:51;;;;;;;9.57;4.30;;;16.50;99.90;;;;;;5009662;28;20288;-58
2023/10/05 09:46:17;;;;;;;11.30;4.40;;;16.50;99.90;;;;;;5009595;28;20215;-55
2023/10/05 09:48:43;;;;;;;10.47;3.60;;;16.50;99.90;;;;;;5011185;28;20199;-55
2023/10/05 09:51:11;;;;;;;8.10;3.67;;;16.40;99.90;;;;;;5016562;28;20211;-55
2023/10/05 09:53:38;;;;;;;6.90;3.37;;;16.30;99.90;;;;;;5020105;28;20941;-55
2023/10/05 09:56:04;;;;;;;6.30;3.03;;;16.20;99.90;;;;;;5020133;28;20678;-55
2023/10/05 09:58:30;;;;;;;5.90;3.03;;;16.30;99.90;;;;;;5018358;28;20200;-57
2023/10/05 10:00:56;;;;;;;8.07;3.20;;;16.30;99.90;;;;;;5021416;28;20681;-56
2023/10/05 10:03:22;;;;;;;5.13;3.40;;;16.10;99.90;;;;;;5019218;28;20211;-56
2023/10/05 10:05:52;;;;;;;5.73;2.90;;;16.00;99.90;;;;;;5013101;28;20200;-56
2023/10/05 10:08:27;;;;;;;4.67;3.57;;;16.10;99.90;;;;;;5016497;28;20199;-56
2023/10/05 10:11:07;;;;;;;6.40;3.10;;;16.00;99.90;;;;;;5016053;28;20207;-56
2023/10/05 10:13:37;;;;;;;7.77;3.00;;;16.00;99.90;;;;;;5014494;28;20191;-56
2023/10/05 10:16:22;;;;;;;4.70;3.07;;;15.90;99.90;;;;;;5021071;28;20580;-56
2023/10/05 10:18:53;;;;;;;8.23;3.03;;;16.10;99.90;;;;;;5014142;28;20205;-56
2023/10/05 10:21:24;;;;;;;8.80;3.50;;;16.10;99.90;;;;;;5016762;28;20281;-56
2023/10/05 10:24:06;;;;;;;6.47;3.40;;;16.20;99.90;;;;;;5017361;28;20251;-57
2023/10/05 10:27:07;;;;;;;5.73;3.30;;;16.10;99.90;;;;;;5013624;28;20644;-56
2023/10/05 10:29:46;;;;;;;7.67;3.33;;;15.90;99.90;;;;;;5012509;28;20292;-56
2023/10/05 10:32:20;;;;;;;5.40;3.40;;;15.70;99.90;;;;;;4999252;28;20677;-57
2023/10/05 10:34:50;;;;;;;7.13;3.80;;;15.60;99.90;;;;;;5022152;28;20211;-56
2023/10/05 10:37:36;;;;;;;7.13;4.10;;;15.70;99.90;;;;;;5016011;28;20266;-56
2023/10/05 10:40:11;;;;;;;9.03;4.03;;;15.70;99.90;;;;;;5016003;28;20218;-56
2023/10/05 10:43:06;;;;;;;8.63;3.73;;;15.70;99.90;;;;;;5017193;28;20279;-56
2023/10/05 10:45:33;;;;;;;6.17;3.40;;;15.80;99.90;;;;;;5013659;28;20207;-56
2023/10/05 10:48:00;;;;;;;9.20;3.23;;;15.70;99.90;;;;;;5019962;28;20222;-57
2023/10/05 10:50:30;;;;;;;3.83;3.13;;;15.60;99.90;;;;;;5020716;28;20423;-59
2023/10/05 10:52:58;;;;;;;6.50;2.93;;;15.70;99.90;;;;;;5023606;28;20195;-57
2023/10/05 10:55:30;;;;;;;8.87;4.03;;;15.60;99.90;;;;;;5019217;28;20187;-56
2023/10/05 10:57:57;;;;;;;6.00;3.43;;;15.70;99.90;;;;;;5014951;28;20210;-56
2023/10/05 11:03:18;;;;;;;4.97;2.90;;;15.70;99.90;;;;;;5020977;28;20217;-56
2023/10/05 11:05:51;;;;;;;6.63;3.23;;;15.70;99.90;;;;;;5016468;28;20212;-56
2023/10/05 11:08:20;;;;;;;7.83;3.67;;;15.70;99.90;;;;;;5011653;28;20551;-57
2023/10/05 11:13:43;;;;;;;8.47;3.87;;;15.80;99.90;;;;;;5019280;28;20904;-57
2023/10/05 11:16:09;;;;;;;6.67;3.43;;;16.00;99.90;;;;;;4997108;28;20206;-56
2023/10/05 11:18:39;;;;;;;8.30;3.43;;;15.90;99.90;;;;;;5014485;28;20206;-56
2023/10/05 11:21:14;;;;;;;6.97;3.13;;;15.80;99.90;;;;;;5010715;28;20302;-57
2023/10/05 11:23:47;;;;;;;5.47;2.63;;;15.70;99.90;;;;;;5012438;28;20203;-58
2023/10/05 11:26:17;;;;;;;7.37;3.17;;;15.70;99.90;;;;;;5020005;28;20269;-55
2023/10/05 11:28:49;;;;;;;7.73;3.20;;;15.70;99.90;;;;;;5014350;28;20216;-56
2023/10/05 11:31:21;;;;;;;8.77;3.33;;;15.80;99.90;;;;;;5018456;28;20198;-56
2023/10/05 11:33:47;;;;;;;8.10;3.40;;;15.80;99.90;;;;;;5012376;28;20317;-57
2023/10/05 11:36:21;;;;;;;5.27;3.40;;;15.80;99.90;;;;;;5014645;28;21147;-56
2023/10/05 11:38:57;;;;;;;5.47;3.17;;;15.90;99.90;;;;;;5015834;28;20655;-56
2023/10/05 11:41:29;;;;;;;6.73;3.37;;;15.70;99.90;;;;;;5018717;28;20936;-56
2023/10/05 11:43:58;;;;;;;11.03;4.10;;;15.10;99.90;;;;;;5013366;28;20611;-56
2023/10/05 11:46:24;;;;;;;7.90;3.93;;;14.90;99.90;;;;;;5005754;28;20206;-55
2023/10/05 11:48:54;;;;;;;6.03;3.50;;;14.80;99.90;;;;;;5013072;28;20278;-59
2023/10/05 11:51:40;;;;;;;7.50;3.53;;;15.00;99.90;;;;;;4992775;28;20601;-54
2023/10/05 11:54:07;;;;;;;6.23;3.37;;;14.90;99.90;;;;;;5013242;28;20195;-57
2023/10/05 11:56:33;;;;;;;5.40;3.80;;;15.00;99.90;;;;;;5010566;28;20238;-61
2023/10/05 11:59:02;;;;;;;4.63;3.20;;;15.20;99.90;;;;;;5013107;28;20191;-57
2023/10/05 12:01:28;;;;;;;6.80;3.60;;;15.50;99.90;;;;;;5011037;28;20600;-62
2023/10/05 12:03:55;;;;;;;6.67;3.57;;;15.70;99.90;;;;;;5015758;28;20198;-55
2023/10/05 12:06:25;;;;;;;4.97;2.57;;;15.90;99.90;;;;;;4996850;28;20713;-55
2023/10/05 12:08:53;;;;;;;8.03;3.73;;;16.00;99.90;;;;;;5017335;28;20586;-55
2023/10/05 12:11:23;;;;;;;5.93;3.57;;;16.20;99.90;;;;;;4999256;28;20199;-55
2023/10/05 12:13:49;;;;;;;4.87;2.83;;;16.30;99.90;;;;;;5013703;28;20286;-55
2023/10/05 12:16:16;;;;;;;8.97;3.43;;;16.30;99.90;;;;;;5012343;28;20677;-58
2023/10/05 12:18:42;;;;;;;6.00;3.33;;;16.40;99.90;;;;;;5016673;28;20207;-64
2023/10/05 12:21:09;;;;;;;4.77;2.80;;;16.40;99.90;;;;;;5015971;28;20222;-56
2023/10/05 12:23:35;;;;;;;7.03;3.47;;;16.10;99.90;;;;;;5001304;28;20218;-56
2023/10/05 12:26:03;;;;;;;7.77;3.37;;;15.90;99.90;;;;;;4999391;28;20627;-57
2023/10/05 12:28:30;;;;;;;6.07;3.33;;;15.70;99.90;;;;;;5017093;28;20533;-56
2023/10/05 12:30:55;;;;;;;6.87;3.27;;;15.80;99.90;;;;;;5015152;28;20191;-56
2023/10/05 12:33:21;;;;;;;13.30;4.60;;;15.80;99.90;;;;;;5016172;28;20202;-62
2023/10/05 12:35:52;;;;;;;6.17;3.50;;;15.70;99.90;;;;;;4996765;28;20683;-61
2023/10/05 12:38:18;;;;;;;7.07;4.03;;;15.70;99.90;;;;;;5019032;28;20194;-57
2023/10/05 12:40:47;;;;;;;5.10;3.57;;;15.60;99.90;;;;;;5078908;22;20246;-57
2023/10/05 12:43:16;;;;;;;5.40;3.87;;;15.40;99.90;;;;;;5021383;28;20231;-56
2023/10/05 12:45:46;;;;;;;5.87;3.63;;;15.50;99.90;;;;;;5028735;28;20438;-57
2023/10/05 12:48:12;;;;;;;11.73;4.20;;;15.70;99.90;;;;;;5031328;28;20932;-57
2023/10/05 12:50:39;;;;;;;7.50;4.07;;;15.60;99.90;;;;;;5032569;28;20210;-57
2023/10/05 12:53:05;;;;;;;6.07;3.63;;;15.50;99.90;;;;;;5006781;28;20211;-57
2023/10/05 12:55:32;;;;;;;5.67;4.27;;;15.60;99.90;;;;;;5015056;28;20265;-57
2023/10/05 12:57:57;;;;;;;5.90;4.00;;;15.40;99.90;;;;;;5019014;28;20200;-57
2023/10/05 13:00:28;;;;;;;7.53;4.40;;;15.40;99.90;;;;;;5019589;28;20619;-57
2023/10/05 13:02:55;;;;;;;9.93;4.70;;;15.30;99.90;;;;;;5016730;28;20610;-57
2023/10/05 13:05:29;;;;;;;4.23;2.47;;;15.20;99.90;;;;;;5013383;28;20282;-54
2023/10/05 13:07:55;;;;;;;4.07;1.40;;;15.10;99.90;;;;;;5016072;28;20270;-57
2023/10/05 13:10:26;;;;;;;4.33;1.43;;;14.40;99.90;;;;;;5012327;28;20274;-57
2023/10/05 13:12:54;;;;;;;2.60;1.17;;;14.20;99.90;;;;;;5009756;28;20333;-57
2023/10/05 13:15:19;;;;;;;2.87;1.20;;;14.30;99.90;;;;;;5009547;28;20207;-55
2023/10/05 13:17:46;;;;;;;3.03;1.17;;;14.10;99.90;;;;;;5014641;28;20191;-59
2023/10/05 13:20:15;;;;;;;1.63;1.10;;;14.10;99.90;;;;;;5012982;28;20333;-57
2023/10/05 13:22:44;;;;;;;1.17;0.90;;;14.20;99.90;;;;;;5011478;28;20246;-57
2023/10/05 13:25:10;;;;;;;0.93;0.90;;;14.00;99.90;;;;;;5008372;28;20195;-56
2023/10/05 13:27:36;;;;;;;0.97;0.97;;;13.70;99.90;;;;;;5011010;28;20280;-57
2023/10/05 13:30:03;;;;;;;4.23;1.23;;;13.80;99.90;;;;;;5016548;28;20199;-57